Stokes, Minnesota
Current Conditions -  °F | °C
As of 7:53 AM on Wednesday 26 Nov 2014 (Local Time) from KFOZ Reporting Station
Light Snow Light Snow  
Wind Chill:   Ceiling: 1300
Heat Index: 12°   Visibility: 2.5mi
Dew Point:   Wind: 6mph
Humidity: 85%   Direction: 340°NNW
Pressure: 30.2"   Gusts: NA
Location:  47.7637°N, 93.7058°W
Report Text: KFOZ 261353Z AUTO 34005KT 2 1/2SM -SN OVC013 M11/M13 A3020 RMK AO2 VIS 1V5
Loading
Personal Weather Stations






























Interactive Weather Map New forecast layout! Learn more

10-Day Weather Forecast

Advertisements
Track Severe Weather on mobile